Terminal Aerodrome Forecast
Issued by NWS Jackson, MS

Home | Current Version | Previous Version | Text Only | Print | Product List | Glossary On
Versions: 1 2 3 4 5 6 7 8 9 10 11
000
FTUS44 KJAN 271100 RRA
TAFGLH
TAF
KGLH 271144Z 2712/2812 14008KT P6SM VCSH SCT008 OVC025
     FM271500 15008KT 4SM SHRA BR VCTS BKN008 OVC015CB
     FM280000 02008KT 2SM +SHRA BR VCTS OVC007CB
     FM280400 36012G20KT 4SM SHRA OVC008=

USA.gov is the U.S. government's official web portal to all federal, state and local government web resources and services.